LJPZ/POW METAR and TAF weather

Enter ICAO airport designator
Station Type Date Time Source
LJPZ METAR 2019/08/26 07:30 UTC NOAA

LJPZ 260730Z 28002KT CAVOK 27/18 Q1017


Station Type Date Time Source
LJPZ Decoded METAR 2019/08/26 07:30 UTC NOAA

Station name not available
Aug 26, 2019 - 03:30 AM EDT / 2019.08.26 0730 UTC
Wind: from the W (280 degrees) at 2 MPH (2 KT):0
Visibility: greater than 7 mile(s):0
Temperature: 80 F (27 C)
Dew Point: 64 F (18 C)
Relative Humidity: 57%
Pressure (altimeter): 30.03 in. Hg (1017 hPa)
ob: LJPZ 260730Z 28002KT CAVOK 27/18 Q1017
cycle: 7

Station Type Date Time Source
LJPZ TAF 2008/06/02 05:30 UTC NOAA

TAF TAF LJPZ 020530Z 021615 VRB02KT 6000 NSC
BECMG 0911 30005KT 9999 FEW040

Example: see airport list